createdAt,value
2023-01-22T00:02:37.724Z,10.40
2023-01-22T00:07:36.905Z,10.50
2023-01-22T00:12:38.050Z,10.70
2023-01-22T00:17:40.224Z,10.40
2023-01-22T00:22:38.515Z,9.70
2023-01-22T00:27:39.663Z,10.10
2023-01-22T00:32:40.807Z,10.40
2023-01-22T00:37:41.925Z,10.60
2023-01-22T00:42:43.116Z,10.70
2023-01-22T00:47:44.225Z,10.30
2023-01-22T00:52:45.407Z,10.10
2023-01-22T00:57:46.548Z,10.10
2023-01-22T01:02:48.722Z,11.10
2023-01-22T01:07:48.068Z,10.40
2023-01-22T01:12:49.234Z,10.00
2023-01-22T01:17:50.416Z,11.10
2023-01-22T01:22:51.569Z,10.80
2023-01-22T01:27:52.688Z,11.10
2023-01-22T01:32:54.809Z,11.00
2023-01-22T01:37:54.975Z,11.60
2023-01-22T01:42:57.969Z,11.40
2023-01-22T01:47:55.130Z,11.40
2023-01-22T01:52:56.306Z,11.70
2023-01-22T01:57:57.545Z,11.60
2023-01-22T02:03:00.667Z,11.70
2023-01-22T02:08:00.792Z,11.30
2023-01-22T02:13:00.931Z,12.20
2023-01-22T02:18:00.099Z,12.10
2023-01-22T02:23:01.254Z,11.80
2023-01-22T02:28:04.404Z,11.80
2023-01-22T02:33:03.562Z,12.00
2023-01-22T02:38:05.711Z,12.30
2023-01-22T02:43:04.846Z,12.00
2023-01-22T02:48:05.988Z,12.50
2023-01-22T02:53:07.124Z,12.80
2023-01-22T02:58:08.291Z,13.10
2023-01-22T03:03:09.420Z,12.40
2023-01-22T03:08:10.573Z,12.00
2023-01-22T03:13:12.768Z,13.60
2023-01-22T03:18:12.882Z,14.10
2023-01-22T03:23:12.009Z,11.90
2023-01-22T03:28:13.151Z,12.60
2023-01-22T03:33:14.584Z,12.90
2023-01-22T03:38:15.688Z,13.00
2023-01-22T03:43:16.837Z,13.50
2023-01-22T03:48:17.948Z,13.00
2023-01-22T03:53:19.092Z,13.30
2023-01-22T03:58:20.222Z,12.80
2023-01-22T04:03:22.438Z,13.70
2023-01-22T04:08:21.569Z,13.50
2023-01-22T04:13:22.751Z,14.80
2023-01-22T04:18:23.938Z,14.60
2023-01-22T04:23:25.128Z,14.90
2023-01-22T04:28:27.270Z,15.00
2023-01-22T04:33:26.428Z,15.10
2023-01-22T04:38:27.662Z,15.80
2023-01-22T04:43:28.785Z,15.70
2023-01-22T04:48:29.968Z,15.20
2023-01-22T04:53:32.115Z,16.00
2023-01-22T04:58:31.303Z,15.80
2023-01-22T05:03:34.468Z,16.50
2023-01-22T05:08:33.625Z,15.90
2023-01-22T05:13:35.787Z,15.20
2023-01-22T05:18:35.950Z,14.90
2023-01-22T05:23:35.102Z,15.70
2023-01-22T05:28:38.239Z,17.00
2023-01-22T05:33:37.347Z,17.20
2023-01-22T05:38:38.515Z,17.70
2023-01-22T05:43:39.704Z,17.30
2023-01-22T05:48:40.855Z,18.00
2023-01-22T05:53:42.000Z,18.20
2023-01-22T05:58:43.172Z,17.10
2023-01-22T06:03:44.384Z,16.80
2023-01-22T06:08:46.558Z,17.40
2023-01-22T06:13:45.703Z,17.50
2023-01-22T06:18:46.838Z,18.80
2023-01-22T06:23:48.030Z,17.60
2023-01-22T06:28:49.173Z,18.50
2023-01-22T06:33:50.298Z,18.60
2023-01-22T06:38:51.455Z,19.10
2023-01-22T06:43:53.599Z,18.60
2023-01-22T06:48:52.805Z,19.60
2023-01-22T06:53:53.933Z,18.60
2023-01-22T06:58:55.119Z,20.80
2023-01-22T07:03:56.249Z,19.10
2023-01-22T07:08:57.764Z,19.30
2023-01-22T07:13:59.045Z,20.20
2023-01-22T07:18:58.162Z,19.10
2023-01-22T07:24:00.358Z,19.80
2023-01-22T07:28:59.539Z,19.70
2023-01-22T07:34:00.640Z,19.50
2023-01-22T07:39:01.815Z,19.30
2023-01-22T07:44:02.957Z,20.00
2023-01-22T07:49:05.091Z,17.90
2023-01-22T07:54:04.258Z,19.20
2023-01-22T07:59:06.449Z,20.30
2023-01-22T08:04:05.607Z,18.40
2023-01-22T08:09:06.772Z,17.60
2023-01-22T08:14:11.895Z,18.20
2023-01-22T08:19:11.036Z,17.20
2023-01-22T08:24:12.164Z,18.90
2023-01-22T08:29:13.455Z,21.10
2023-01-22T08:34:12.623Z,21.00
2023-01-22T08:39:13.757Z,24.20
2023-01-22T08:44:14.877Z,22.30
2023-01-22T08:49:16.024Z,20.80
2023-01-22T08:54:17.163Z,19.90
2023-01-22T08:59:19.333Z,20.50
2023-01-22T09:04:18.489Z,16.30
2023-01-22T09:09:21.659Z,13.90
2023-01-22T09:14:21.865Z,14.10
2023-01-22T09:19:23.009Z,14.20
2023-01-22T09:24:23.106Z,15.70
2023-01-22T09:29:23.239Z,14.80
2023-01-22T09:34:23.375Z,16.10
2023-01-22T09:39:22.803Z,22.30
2023-01-22T09:44:24.930Z,18.80
2023-01-22T09:49:27.999Z,15.70
2023-01-22T09:54:25.139Z,16.20
2023-01-22T09:59:26.299Z,16.80
2023-01-22T10:04:28.419Z,16.30
2023-01-22T10:09:27.538Z,18.40
2023-01-22T10:14:28.668Z,15.70
2023-01-22T10:19:30.791Z,16.60
2023-01-22T10:24:29.945Z,15.10
2023-01-22T10:29:31.034Z,16.70
2023-01-22T10:34:33.195Z,14.10
2023-01-22T10:39:33.314Z,15.70
2023-01-22T10:44:32.485Z,14.80
2023-01-22T10:49:32.628Z,15.40
2023-01-22T10:54:34.812Z,16.40
2023-01-22T10:59:35.163Z,13.90
2023-01-22T11:04:34.366Z,15.80
2023-01-22T11:09:35.490Z,14.40
2023-01-22T11:14:36.652Z,12.20
2023-01-22T11:19:37.829Z,12.90
2023-01-22T11:24:38.947Z,11.50
2023-01-22T11:29:41.077Z,13.70
2023-01-22T11:34:40.264Z,15.00
2023-01-22T11:39:41.440Z,15.40
2023-01-22T11:44:42.570Z,11.70
2023-01-22T11:49:43.813Z,12.70
2023-01-22T11:54:45.156Z,12.70
2023-01-22T11:59:46.443Z,12.80
2023-01-22T12:04:47.653Z,11.80
2023-01-22T12:09:48.987Z,13.30
2023-01-22T12:14:50.138Z,13.30
2023-01-22T12:19:51.255Z,12.90
2023-01-22T12:24:52.501Z,12.10
2023-01-22T12:29:53.798Z,12.40
2023-01-22T12:34:56.102Z,11.90
2023-01-22T12:39:56.286Z,11.60
2023-01-22T12:44:55.451Z,11.70
2023-01-22T12:49:56.532Z,11.90
2023-01-22T12:54:57.811Z,12.10
2023-01-22T12:59:59.134Z,11.80
2023-01-22T13:05:00.297Z,12.20
2023-01-22T13:10:01.541Z,11.70
2023-01-22T13:15:02.709Z,12.00
2023-01-22T13:20:03.896Z,10.00
2023-01-22T13:25:05.188Z,10.90
2023-01-22T13:30:06.397Z,10.60
2023-01-22T13:35:07.897Z,10.50
2023-01-22T13:40:07.195Z,10.50
2023-01-22T13:45:09.362Z,9.60
2023-01-22T13:50:08.599Z,10.70
2023-01-22T13:55:10.818Z,9.90
2023-01-22T14:00:10.530Z,10.40
2023-01-22T14:05:09.812Z,10.60
2023-01-22T14:10:11.049Z,9.80
2023-01-22T14:15:12.375Z,10.50
2023-01-22T14:20:13.733Z,9.90
2023-01-22T14:25:19.040Z,10.30
2023-01-22T14:30:20.702Z,10.80
2023-01-22T14:35:17.323Z,9.10
2023-01-22T14:40:17.230Z,9.80
2023-01-22T14:45:17.789Z,9.50
2023-01-22T14:50:18.429Z,9.20
2023-01-22T14:55:17.892Z,8.80
2023-01-22T15:00:20.321Z,8.90
2023-01-22T15:05:18.485Z,9.50
2023-01-22T15:10:19.835Z,10.20
2023-01-22T15:15:19.209Z,10.10
2023-01-22T15:20:21.473Z,12.40
2023-01-22T15:25:20.879Z,11.30
2023-01-22T15:30:21.138Z,8.40
2023-01-22T15:35:20.775Z,8.10
2023-01-22T15:40:20.557Z,9.20
2023-01-22T15:45:21.059Z,10.70
2023-01-22T15:50:21.560Z,8.40
2023-01-22T15:55:20.994Z,10.30
2023-01-22T16:00:24.579Z,8.60
2023-01-22T16:05:21.876Z,10.00
2023-01-22T16:10:24.105Z,11.80
2023-01-22T16:15:23.514Z,9.30
2023-01-22T16:20:24.899Z,10.60
2023-01-22T16:25:26.395Z,10.90
2023-01-22T16:30:26.901Z,11.00
2023-01-22T16:35:26.440Z,12.40
2023-01-22T16:40:25.870Z,13.00
2023-01-22T16:45:25.356Z,12.10
2023-01-22T16:50:24.847Z,11.50
2023-01-22T16:55:24.365Z,19.60
2023-01-22T17:00:25.903Z,19.70
2023-01-22T17:05:23.514Z,16.40
2023-01-22T17:10:23.085Z,23.00
2023-01-22T17:15:23.599Z,75.00
2023-01-22T17:20:23.103Z,50.60
2023-01-22T17:25:22.748Z,21.70
2023-01-22T17:30:22.389Z,17.00
2023-01-22T17:35:22.191Z,16.00
2023-01-22T17:40:21.975Z,14.70
2023-01-22T17:45:22.533Z,14.60
2023-01-22T17:50:22.129Z,11.80
2023-01-22T17:55:22.788Z,11.60
2023-01-22T18:00:22.267Z,12.00
2023-01-22T18:05:23.058Z,13.40
2023-01-22T18:10:22.612Z,13.10
2023-01-22T18:15:22.066Z,13.30
2023-01-22T18:20:21.550Z,12.10
2023-01-22T18:25:22.217Z,13.50
2023-01-22T18:30:21.542Z,13.20
2023-01-22T18:35:24.028Z,13.80
2023-01-22T18:40:23.275Z,13.70
2023-01-22T18:45:24.676Z,13.80
2023-01-22T18:50:27.192Z,13.20
2023-01-22T18:55:26.451Z,13.80
2023-01-22T19:00:28.870Z,12.40
2023-01-22T19:05:28.335Z,12.70
2023-01-22T19:10:29.519Z,13.30
2023-01-22T19:15:30.921Z,13.20
2023-01-22T19:20:31.005Z,14.10
2023-01-22T19:25:31.529Z,13.10
2023-01-22T19:30:30.793Z,12.90
2023-01-22T19:35:32.358Z,13.20
2023-01-22T19:40:31.873Z,12.90
2023-01-22T19:45:33.416Z,12.80
2023-01-22T19:50:30.898Z,12.30
2023-01-22T19:55:30.464Z,12.70
2023-01-22T20:00:29.848Z,12.40
2023-01-22T20:05:31.490Z,12.60
2023-01-22T20:10:31.330Z,11.80
2023-01-22T20:15:32.521Z,12.30
2023-01-22T20:20:31.625Z,11.70
2023-01-22T20:25:31.327Z,11.50
2023-01-22T20:30:30.940Z,11.40
2023-01-22T20:35:30.504Z,12.60
2023-01-22T20:40:29.732Z,11.60
2023-01-22T20:45:29.962Z,12.80
2023-01-22T20:50:31.491Z,12.00
2023-01-22T20:55:30.958Z,12.40
2023-01-22T21:00:34.176Z,14.70
2023-01-22T21:05:36.482Z,12.70
2023-01-22T21:10:32.070Z,12.60
2023-01-22T21:15:31.523Z,12.20
2023-01-22T21:20:32.930Z,12.30
2023-01-22T21:25:34.275Z,12.10
2023-01-22T21:30:36.603Z,13.20
2023-01-22T21:35:36.097Z,14.10
2023-01-22T21:40:35.418Z,13.20
2023-01-22T21:45:36.661Z,13.10
2023-01-22T21:50:37.950Z,12.40
2023-01-22T21:55:39.307Z,11.70
2023-01-22T22:00:39.626Z,12.10
2023-01-22T22:05:42.302Z,12.20
2023-01-22T22:10:41.480Z,13.10
2023-01-22T22:15:42.824Z,12.20
2023-01-22T22:20:43.922Z,12.10
2023-01-22T22:25:46.067Z,12.00
2023-01-22T22:30:45.247Z,12.20
2023-01-22T22:35:46.380Z,12.50
2023-01-22T22:40:47.539Z,12.20
2023-01-22T22:45:48.832Z,12.90
2023-01-22T22:50:50.057Z,15.10
2023-01-22T22:55:51.183Z,22.90
2023-01-22T23:00:53.343Z,14.70
2023-01-22T23:05:52.547Z,15.20
2023-01-22T23:10:53.692Z,12.90
2023-01-22T23:15:54.844Z,12.70
2023-01-22T23:20:56.982Z,13.20
2023-01-22T23:25:56.108Z,12.50
2023-01-22T23:30:57.357Z,13.30
2023-01-22T23:35:58.550Z,13.50
2023-01-22T23:41:00.677Z,12.60
2023-01-22T23:46:00.517Z,12.10
2023-01-22T23:50:59.723Z,12.80
2023-01-22T23:56:00.872Z,12.40
